Time,TemperatureF,DewpointF,PressureIn,WindDirection,WindDirectionDegrees,WindSpeedMPH,WindSpeedGustMPH,Humidity,HourlyPrecipIn,Conditions,Clouds,dailyrainin,SoftwareType,DateUTC
2013-01-19 00:01:00,36.1,28.9,30.06,SSW,202,13.8,13.8,75,0.00,CLR,,0.00,WeatherDisplay:10.37,2013-01-19 06:01:00,
2013-01-19 00:06:00,36.0,28.8,30.06,WSW,244,10.0,10.0,75,0.00,CLR,,0.00,WeatherDisplay:10.37,2013-01-19 06:06:00,
2013-01-19 00:12:00,36.1,29.3,30.07,WSW,251,14.0,14.0,76,0.00,CLR,,0.00,WeatherDisplay:10.37,2013-01-19 06:12:00,
2013-01-19 00:17:00,36.0,29.2,30.06,SW,230,15.0,15.0,76,0.00,CLR,,0.00,WeatherDisplay:10.37,2013-01-19 06:17:00,
2013-01-19 00:22:00,36.0,29.2,30.07,SSW,202,12.7,12.7,76,0.00,CLR,,0.00,WeatherDisplay:10.37,2013-01-19 06:22:00,
2013-01-19 00:27:00,36.0,29.2,30.06,SW,222,11.5,11.5,76,0.00,CLR,,0.00,WeatherDisplay:10.37,2013-01-19 06:27:00,
2013-01-19 00:32:00,35.9,29.1,30.07,South,179,11.5,11.5,76,0.00,CLR,,0.00,WeatherDisplay:10.37,2013-01-19 06:32:00,
2013-01-19 00:38:00,35.8,29.0,30.06,SSE,160,15.0,15.0,76,0.00,CLR,,0.00,WeatherDisplay:10.37,2013-01-19 06:38:00,
2013-01-19 00:43:00,35.8,29.0,30.06,WSW,248,9.2,9.2,76,0.00,CLR,,0.00,WeatherDisplay:10.37,2013-01-19 06:43:00,
2013-01-19 00:48:00,35.7,29.2,30.06,SW,222,13.8,13.8,77,0.00,CLR,,0.00,WeatherDisplay:10.37,2013-01-19 06:48:00,
2013-01-19 00:54:00,35.7,29.2,30.06,SSW,210,15.0,15.0,77,0.00,CLR,,0.00,WeatherDisplay:10.37,2013-01-19 06:54:00,
2013-01-19 00:59:00,35.8,29.3,30.06,SSE,166,11.5,11.5,77,0.00,CLR,,0.00,WeatherDisplay:10.37,2013-01-19 06:59:00,
2013-01-19 01:04:00,35.7,29.2,30.06,SW,230,11.5,11.5,77,0.00,CLR,,0.00,WeatherDisplay:10.37,2013-01-19 07:04:00,
2013-01-19 01:09:00,35.8,29.3,30.06,SSE,168,12.7,12.7,77,0.00,CLR,,0.00,WeatherDisplay:10.37,2013-01-19 07:09:00,
2013-01-19 01:14:00,35.9,29.4,30.06,SW,232,11.5,11.5,77,0.00,CLR,,0.00,WeatherDisplay:10.37,2013-01-19 07:14:00,
2013-01-19 01:19:00,35.8,29.3,30.06,SSW,196,11.5,11.5,77,0.00,CLR,,0.00,WeatherDisplay:10.37,2013-01-19 07:19:00,
2013-01-19 01:24:00,35.9,29.4,30.06,SW,236,15.0,15.0,77,0.00,CLR,,0.00,WeatherDisplay:10.37,2013-01-19 07:24:00,
2013-01-19 01:29:00,35.9,29.4,30.06,SSE,168,12.7,12.7,77,0.00,CLR,,0.00,WeatherDisplay:10.37,2013-01-19 07:29:00,
2013-01-19 01:34:00,35.9,29.4,30.06,WSW,238,15.0,15.0,77,0.00,CLR,,0.00,WeatherDisplay:10.37,2013-01-19 07:34:00,
2013-01-19 01:40:00,35.9,29.4,30.06,WSW,237,13.8,13.8,77,0.00,CLR,,0.00,WeatherDisplay:10.37,2013-01-19 07:40:00,
2013-01-19 01:45:00,35.9,29.4,30.06,SSW,207,11.5,11.5,77,0.00,CLR,,0.00,WeatherDisplay:10.37,2013-01-19 07:45:00,
2013-01-19 01:50:00,35.9,29.4,30.06,South,186,15.0,15.0,77,0.00,CLR,,0.00,WeatherDisplay:10.37,2013-01-19 07:50:00,
2013-01-19 01:55:00,36.0,29.5,30.06,SW,225,13.8,13.8,77,0.00,CLR,,0.00,WeatherDisplay:10.37,2013-01-19 07:55:00,
2013-01-19 02:00:00,35.9,29.4,30.06,WSW,250,13.8,13.8,77,0.00,CLR,,0.00,WeatherDisplay:10.37,2013-01-19 08:00:00,
2013-01-19 02:05:00,36.0,29.5,30.06,SSW,199,12.7,12.7,77,0.00,CLR,,0.00,WeatherDisplay:10.37,2013-01-19 08:05:00,
2013-01-19 02:10:00,36.0,29.5,30.06,WSW,241,13.8,13.8,77,0.00,CLR,,0.00,WeatherDisplay:10.37,2013-01-19 08:10:00,
2013-01-19 02:16:00,36.1,29.6,30.06,WSW,239,13.0,13.0,77,0.00,CLR,,0.00,WeatherDisplay:10.37,2013-01-19 08:16:00,
2013-01-19 02:21:00,35.9,29.4,30.06,SSE,161,14.0,14.0,77,0.00,CLR,,0.00,WeatherDisplay:10.37,2013-01-19 08:21:00,
2013-01-19 02:26:00,36.0,29.5,30.06,WSW,241,18.4,18.4,77,0.00,CLR,,0.00,WeatherDisplay:10.37,2013-01-19 08:26:00,
2013-01-19 02:31:00,36.1,29.6,30.06,SW,227,11.5,11.5,77,0.00,CLR,,0.00,WeatherDisplay:10.37,2013-01-19 08:31:00,
2013-01-19 02:36:00,36.2,29.7,30.06,SW,217,13.8,13.8,77,0.00,CLR,,0.00,WeatherDisplay:10.37,2013-01-19 08:36:00,
2013-01-19 02:41:00,36.4,29.6,30.05,SSW,200,11.5,11.5,76,0.00,CLR,,0.00,WeatherDisplay:10.37,2013-01-19 08:41:00,
2013-01-19 02:47:00,36.4,29.6,30.05,SW,221,15.0,15.0,76,0.00,CLR,,0.00,WeatherDisplay:10.37,2013-01-19 08:47:00,
2013-01-19 02:52:00,36.3,29.5,30.05,SE,142,14.0,14.0,76,0.00,CLR,,0.00,WeatherDisplay:10.37,2013-01-19 08:52:00,
2013-01-19 02:57:00,36.4,29.6,30.05,SW,231,17.0,17.0,76,0.00,CLR,,0.00,WeatherDisplay:10.37,2013-01-19 08:57:00,
2013-01-19 03:02:00,36.3,29.5,30.05,SSW,209,17.3,17.3,76,0.00,CLR,,0.00,WeatherDisplay:10.37,2013-01-19 09:02:00,
2013-01-19 03:07:00,36.2,29.4,30.04,South,183,17.0,17.0,76,0.00,CLR,,0.00,WeatherDisplay:10.37,2013-01-19 09:07:00,
2013-01-19 03:12:00,36.4,29.6,30.04,SSW,210,19.6,19.6,76,0.00,CLR,,0.00,WeatherDisplay:10.37,2013-01-19 09:12:00,
2013-01-19 03:17:00,36.3,29.5,30.04,SW,231,13.0,13.0,76,0.00,CLR,,0.00,WeatherDisplay:10.37,2013-01-19 09:17:00,
2013-01-19 03:23:00,36.1,29.3,30.04,SW,214,11.5,11.5,76,0.00,CLR,,0.00,WeatherDisplay:10.37,2013-01-19 09:23:00,
2013-01-19 03:28:00,36.1,29.3,30.04,South,183,12.7,12.7,76,0.00,CLR,,0.00,WeatherDisplay:10.37,2013-01-19 09:28:00,
2013-01-19 03:33:00,36.1,29.3,30.04,South,175,15.0,15.0,76,0.00,CLR,,0.00,WeatherDisplay:10.37,2013-01-19 09:33:00,
2013-01-19 03:38:00,36.1,29.3,30.04,WSW,251,15.0,15.0,76,0.00,CLR,,0.00,WeatherDisplay:10.37,2013-01-19 09:38:00,
2013-01-19 03:43:00,36.2,29.4,30.04,WSW,240,15.0,15.0,76,0.00,CLR,,0.00,WeatherDisplay:10.37,2013-01-19 09:43:00,
2013-01-19 03:48:00,36.3,29.5,30.04,SW,229,15.0,15.0,76,0.00,CLR,,0.00,WeatherDisplay:10.37,2013-01-19 09:48:00,
2013-01-19 03:53:00,36.1,29.3,30.03,SW,236,12.7,12.7,76,0.00,CLR,,0.00,WeatherDisplay:10.37,2013-01-19 09:53:00,
2013-01-19 03:58:00,36.1,29.3,30.03,SSW,205,12.0,12.0,76,0.00,CLR,,0.00,WeatherDisplay:10.37,2013-01-19 09:58:00,
2013-01-19 04:04:00,36.2,29.4,30.03,SW,223,15.0,15.0,76,0.00,CLR,,0.00,WeatherDisplay:10.37,2013-01-19 10:04:00,
2013-01-19 04:09:00,36.2,29.4,30.03,SW,225,13.0,13.0,76,0.00,CLR,,0.00,WeatherDisplay:10.37,2013-01-19 10:09:00,
2013-01-19 04:14:00,36.2,29.4,30.03,South,170,12.7,12.7,76,0.00,CLR,,0.00,WeatherDisplay:10.37,2013-01-19 10:14:00,
2013-01-19 04:19:00,36.1,29.3,30.03,SW,236,13.8,13.8,76,0.00,CLR,,0.00,WeatherDisplay:10.37,2013-01-19 10:19:00,
2013-01-19 04:24:00,36.1,29.6,30.03,SW,219,13.0,13.0,77,0.00,CLR,,0.00,WeatherDisplay:10.37,2013-01-19 10:24:00,
2013-01-19 04:29:00,36.6,29.7,30.03,SW,222,11.5,11.5,76,0.00,CLR,,0.00,WeatherDisplay:10.37,2013-01-19 10:29:00,
2013-01-19 04:35:00,36.4,29.6,30.02,SW,216,10.4,10.4,76,0.00,CLR,,0.00,WeatherDisplay:10.37,2013-01-19 10:35:00,
2013-01-19 04:40:00,36.2,29.4,30.02,SSW,194,17.3,17.3,76,0.00,CLR,,0.00,WeatherDisplay:10.37,2013-01-19 10:40:00,
2013-01-19 04:45:00,36.2,29.4,30.03,SSW,202,12.7,12.7,76,0.00,CLR,,0.00,WeatherDisplay:10.37,2013-01-19 10:45:00,
2013-01-19 04:50:00,36.1,29.3,30.02,SW,223,11.5,11.5,76,0.00,CLR,,0.00,WeatherDisplay:10.37,2013-01-19 10:50:00,
2013-01-19 04:56:00,36.0,29.2,30.03,WSW,243,10.4,10.4,76,0.00,CLR,,0.00,WeatherDisplay:10.37,2013-01-19 10:56:00,
2013-01-19 05:01:00,36.1,29.3,30.02,SSW,203,12.7,12.7,76,0.00,CLR,,0.00,WeatherDisplay:10.37,2013-01-19 11:01:00,
2013-01-19 05:06:00,36.0,29.2,30.02,SSW,197,15.0,15.0,76,0.00,CLR,,0.00,WeatherDisplay:10.37,2013-01-19 11:06:00,
2013-01-19 05:12:00,36.0,29.5,30.02,SW,236,11.5,11.5,77,0.00,CLR,,0.00,WeatherDisplay:10.37,2013-01-19 11:12:00,
2013-01-19 06:48:00,36.0,29.2,30.01,WSW,240,12.0,12.0,76,0.00,CLR,,0.00,WeatherDisplay:10.37,2013-01-19 12:48:00,
2013-01-19 06:49:00,36.0,29.2,30.01,SSW,209,11.5,11.5,76,0.00,CLR,,0.00,WeatherDisplay:10.37,2013-01-19 12:49:00,
2013-01-19 06:54:00,36.0,29.2,30.01,SW,230,13.8,13.8,76,0.00,CLR,,0.00,WeatherDisplay:10.37,2013-01-19 12:54:00,
2013-01-19 06:59:00,36.0,29.2,30.01,South,173,11.5,11.5,76,0.00,CLR,,0.00,WeatherDisplay:10.37,2013-01-19 12:59:00,
2013-01-19 07:05:00,35.9,29.1,30.00,WSW,249,11.0,11.0,76,0.00,CLR,,0.00,WeatherDisplay:10.37,2013-01-19 13:05:00,
2013-01-19 07:10:00,35.9,29.1,30.00,SW,229,11.5,11.5,76,0.00,CLR,,0.00,WeatherDisplay:10.37,2013-01-19 13:10:00,
2013-01-19 07:15:00,35.9,29.1,30.00,SW,225,10.4,10.4,76,0.00,CLR,,0.00,WeatherDisplay:10.37,2013-01-19 13:15:00,
2013-01-19 07:20:00,35.9,29.1,30.00,SSW,206,10.0,10.0,76,0.00,CLR,,0.00,WeatherDisplay:10.37,2013-01-19 13:20:00,
2013-01-19 07:25:00,35.8,29.0,30.00,SSW,210,11.0,11.0,76,0.00,CLR,,0.00,WeatherDisplay:10.37,2013-01-19 13:25:00,
2013-01-19 07:30:00,35.7,28.9,30.00,SW,231,10.4,10.4,76,0.00,CLR,,0.00,WeatherDisplay:10.37,2013-01-19 13:30:00,
2013-01-19 07:35:00,35.8,29.0,30.00,South,185,9.2,9.2,76,0.00,CLR,,0.00,WeatherDisplay:10.37,2013-01-19 13:35:00,
2013-01-19 07:41:00,35.8,29.0,30.00,SW,219,13.0,13.0,76,0.00,CLR,,0.00,WeatherDisplay:10.37,2013-01-19 13:41:00,
2013-01-19 07:46:00,35.9,29.1,29.99,South,170,11.5,11.5,76,0.00,CLR,,0.00,WeatherDisplay:10.37,2013-01-19 13:46:00,
2013-01-19 07:51:00,36.0,29.2,29.99,South,186,12.0,12.0,76,0.00,CLR,,0.00,WeatherDisplay:10.37,2013-01-19 13:51:00,
2013-01-19 07:57:00,36.0,29.2,30.00,SSW,209,11.5,11.5,76,0.00,CLR,,0.00,WeatherDisplay:10.37,2013-01-19 13:57:00,
2013-01-19 08:02:00,36.1,29.3,30.00,SSW,192,10.4,10.4,76,0.00,CLR,,0.00,WeatherDisplay:10.37,2013-01-19 14:02:00,
2013-01-19 08:07:00,36.4,29.6,30.00,SSW,196,12.7,12.7,76,0.00,CLR,,0.00,WeatherDisplay:10.37,2013-01-19 14:07:00,
2013-01-19 08:12:00,36.5,29.7,30.00,South,184,11.5,11.5,76,0.00,CLR,,0.00,WeatherDisplay:10.37,2013-01-19 14:12:00,
2013-01-19 08:17:00,36.7,29.5,30.00,SSW,202,12.7,12.7,75,0.00,CLR,,0.00,WeatherDisplay:10.37,2013-01-19 14:17:00,
2013-01-19 08:22:00,37.0,29.8,30.00,SW,227,6.9,6.9,75,0.00,CLR,,0.00,WeatherDisplay:10.37,2013-01-19 14:22:00,
2013-01-19 08:27:00,37.3,29.8,30.00,SSW,192,11.5,11.5,74,0.00,CLR,,0.00,WeatherDisplay:10.37,2013-01-19 14:27:00,
2013-01-19 08:32:00,37.5,30.0,30.00,WSW,243,13.8,13.8,74,0.00,CLR,,0.00,WeatherDisplay:10.37,2013-01-19 14:32:00,
2013-01-19 08:37:00,37.7,30.2,30.00,SW,221,15.0,15.0,74,0.00,CLR,,0.00,WeatherDisplay:10.37,2013-01-19 14:37:00,
2013-01-19 08:43:00,38.0,30.1,30.00,South,182,15.0,15.0,73,0.00,CLR,,0.00,WeatherDisplay:10.37,2013-01-19 14:43:00,
2013-01-19 08:48:00,38.2,30.3,30.00,SW,228,19.6,19.6,73,0.00,CLR,,0.00,WeatherDisplay:10.37,2013-01-19 14:48:00,
2013-01-19 08:53:00,38.3,30.4,30.00,South,169,12.7,12.7,73,0.00,CLR,,0.00,WeatherDisplay:10.37,2013-01-19 14:53:00,
2013-01-19 08:58:00,38.6,30.4,30.00,SW,217,12.7,12.7,72,0.00,CLR,,0.00,WeatherDisplay:10.37,2013-01-19 14:58:00,
2013-01-19 09:03:00,38.8,30.9,30.00,SW,229,14.0,14.0,73,0.00,CLR,,0.00,WeatherDisplay:10.37,2013-01-19 15:03:00,
2013-01-19 09:09:00,38.9,30.6,30.00,SSW,211,12.7,12.7,72,0.00,CLR,,0.00,WeatherDisplay:10.37,2013-01-19 15:09:00,
2013-01-19 09:14:00,39.2,30.9,30.00,SW,230,18.4,18.4,72,0.00,CLR,,0.00,WeatherDisplay:10.37,2013-01-19 15:14:00,
2013-01-19 09:19:00,39.3,30.7,30.00,SW,217,16.1,16.1,71,0.00,CLR,,0.00,WeatherDisplay:10.37,2013-01-19 15:19:00,
2013-01-19 09:24:00,39.5,30.9,30.00,SW,221,11.5,11.5,71,0.00,CLR,,0.00,WeatherDisplay:10.37,2013-01-19 15:24:00,
2013-01-19 09:30:00,39.8,31.2,30.00,South,178,14.0,14.0,71,0.00,CLR,,0.00,WeatherDisplay:10.37,2013-01-19 15:30:00,
2013-01-19 09:35:00,40.0,31.4,30.00,SSW,200,13.8,13.8,71,0.00,CLR,,0.00,WeatherDisplay:10.37,2013-01-19 15:35:00,
2013-01-19 09:40:00,40.2,31.5,30.00,SSW,207,16.1,16.1,71,0.00,CLR,,0.00,WeatherDisplay:10.37,2013-01-19 15:40:00,
2013-01-19 09:45:00,40.4,31.7,29.99,SW,227,17.3,17.3,71,0.00,CLR,,0.00,WeatherDisplay:10.37,2013-01-19 15:45:00,
2013-01-19 09:50:00,40.7,31.7,29.99,SSW,204,10.4,10.4,70,0.00,CLR,,0.00,WeatherDisplay:10.37,2013-01-19 15:50:00,
2013-01-19 09:55:00,40.9,31.9,29.99,South,186,15.0,15.0,70,0.00,CLR,,0.00,WeatherDisplay:10.37,2013-01-19 15:55:00,
2013-01-19 10:01:00,41.1,32.1,29.99,South,191,16.1,16.1,70,0.00,CLR,,0.00,WeatherDisplay:10.37,2013-01-19 16:01:00,
2013-01-19 10:06:00,41.4,32.0,29.99,SW,219,17.3,17.3,69,0.00,CLR,,0.00,WeatherDisplay:10.37,2013-01-19 16:06:00,
2013-01-19 10:11:00,41.7,32.3,29.98,SW,232,17.3,17.3,69,0.00,CLR,,0.00,WeatherDisplay:10.37,2013-01-19 16:11:00,
2013-01-19 10:16:00,42.0,32.6,29.98,SSW,210,15.0,15.0,69,0.00,CLR,,0.00,WeatherDisplay:10.37,2013-01-19 16:16:00,
2013-01-19 10:21:00,42.2,32.8,29.97,SW,227,23.0,23.0,69,0.00,CLR,,0.00,WeatherDisplay:10.37,2013-01-19 16:21:00,
2013-01-19 10:26:00,42.6,33.1,29.97,SW,229,19.6,19.6,69,0.00,CLR,,0.00,WeatherDisplay:10.37,2013-01-19 16:26:00,
2013-01-19 10:31:00,42.8,33.0,29.97,SW,218,19.6,19.6,68,0.00,CLR,,0.00,WeatherDisplay:10.37,2013-01-19 16:31:00,
2013-01-19 10:36:00,43.1,33.3,29.97,SW,217,14.0,14.0,68,0.00,CLR,,0.00,WeatherDisplay:10.37,2013-01-19 16:36:00,
2013-01-19 10:42:00,43.4,33.5,29.96,WSW,237,18.4,18.4,68,0.00,CLR,,0.00,WeatherDisplay:10.37,2013-01-19 16:42:00,
2013-01-19 10:47:00,43.8,33.6,29.96,WSW,246,18.4,18.4,67,0.00,CLR,,0.00,WeatherDisplay:10.37,2013-01-19 16:47:00,
2013-01-19 10:52:00,43.9,34.0,29.96,SW,230,20.7,20.7,68,0.00,CLR,,0.00,WeatherDisplay:10.37,2013-01-19 16:52:00,
2013-01-19 10:57:00,44.3,34.4,29.95,SW,227,11.5,11.5,68,0.00,CLR,,0.00,WeatherDisplay:10.37,2013-01-19 16:57:00,
2013-01-19 11:02:00,44.7,34.4,29.95,SW,223,15.0,15.0,67,0.00,CLR,,0.00,WeatherDisplay:10.37,2013-01-19 17:02:00,
2013-01-19 11:07:00,45.0,34.7,29.94,SW,226,15.0,15.0,67,0.00,CLR,,0.00,WeatherDisplay:10.37,2013-01-19 17:07:00,
2013-01-19 11:12:00,45.0,34.3,29.94,SSW,202,15.0,15.0,66,0.00,CLR,,0.00,WeatherDisplay:10.37,2013-01-19 17:12:00,
2013-01-19 11:18:00,45.3,35.0,29.93,SW,215,19.6,19.6,67,0.00,CLR,,0.00,WeatherDisplay:10.37,2013-01-19 17:18:00,
2013-01-19 11:23:00,45.4,34.7,29.93,SW,225,19.6,19.6,66,0.00,CLR,,0.00,WeatherDisplay:10.37,2013-01-19 17:23:00,
2013-01-19 11:28:00,45.5,34.8,29.93,SW,218,16.1,16.1,66,0.00,CLR,,0.00,WeatherDisplay:10.37,2013-01-19 17:28:00,
2013-01-19 11:33:00,46.0,35.7,29.92,SSW,199,13.8,13.8,67,0.00,CLR,,0.00,WeatherDisplay:10.37,2013-01-19 17:33:00,
2013-01-19 11:39:00,46.1,35.4,29.92,SW,221,15.0,15.0,66,0.00,CLR,,0.00,WeatherDisplay:10.37,2013-01-19 17:39:00,
2013-01-19 11:44:00,46.4,35.7,29.91,SW,219,19.6,19.6,66,0.00,CLR,,0.00,WeatherDisplay:10.37,2013-01-19 17:44:00,
2013-01-19 11:50:00,46.6,35.5,29.91,SW,215,17.3,17.3,65,0.00,CLR,,0.00,WeatherDisplay:10.37,2013-01-19 17:50:00,
2013-01-19 11:55:00,46.8,35.6,29.90,WSW,242,21.9,21.9,65,0.00,CLR,,0.00,WeatherDisplay:10.37,2013-01-19 17:55:00,
2013-01-19 12:00:00,47.2,36.0,29.90,SW,228,13.8,13.8,65,0.00,CLR,,0.00,WeatherDisplay:10.37,2013-01-19 18:00:00,
2013-01-19 12:06:00,47.6,36.4,29.90,SSW,209,20.7,20.7,65,0.00,CLR,,0.00,WeatherDisplay:10.37,2013-01-19 18:06:00,
2013-01-19 12:11:00,47.6,36.0,29.89,SW,215,24.2,24.2,64,0.00,CLR,,0.00,WeatherDisplay:10.37,2013-01-19 18:11:00,
2013-01-19 12:17:00,47.5,36.3,29.89,SW,226,19.6,19.6,65,0.00,CLR,,0.00,WeatherDisplay:10.37,2013-01-19 18:17:00,
2013-01-19 12:22:00,47.8,36.6,29.88,WSW,244,17.3,17.3,65,0.00,CLR,,0.00,WeatherDisplay:10.37,2013-01-19 18:22:00,
2013-01-19 12:27:00,47.9,36.7,29.88,WSW,240,19.6,19.6,65,0.00,CLR,,0.00,WeatherDisplay:10.37,2013-01-19 18:27:00,
2013-01-19 12:33:00,48.3,37.1,29.87,SSW,213,12.7,12.7,65,0.00,CLR,,0.00,WeatherDisplay:10.37,2013-01-19 18:33:00,
2013-01-19 12:38:00,48.4,37.2,29.87,SSW,202,17.3,17.3,65,0.00,CLR,,0.00,WeatherDisplay:10.37,2013-01-19 18:38:00,
2013-01-19 12:43:00,48.6,37.0,29.87,SW,230,17.3,17.3,64,0.00,CLR,,0.00,WeatherDisplay:10.37,2013-01-19 18:43:00,
2013-01-19 12:49:00,48.7,37.1,29.87,WSW,246,26.5,26.5,64,0.00,CLR,,0.00,WeatherDisplay:10.37,2013-01-19 18:49:00,
2013-01-19 12:54:00,49.0,37.3,29.86,SSW,207,19.6,19.6,64,0.00,CLR,,0.00,WeatherDisplay:10.37,2013-01-19 18:54:00,
2013-01-19 13:00:00,49.0,37.3,29.86,SW,230,17.3,17.3,64,0.00,CLR,,0.00,WeatherDisplay:10.37,2013-01-19 19:00:00,
2013-01-19 13:06:00,49.2,37.5,29.86,SSE,155,16.1,16.1,64,0.00,CLR,,0.00,WeatherDisplay:10.37,2013-01-19 19:06:00,
2013-01-19 13:11:00,49.2,37.5,29.85,SW,226,16.1,16.1,64,0.00,CLR,,0.00,WeatherDisplay:10.37,2013-01-19 19:11:00,
2013-01-19 13:16:00,49.4,37.7,29.85,SW,225,15.0,15.0,64,0.00,CLR,,0.00,WeatherDisplay:10.37,2013-01-19 19:16:00,
2013-01-19 13:22:00,49.7,38.0,29.85,SW,215,15.0,15.0,64,0.00,CLR,,0.00,WeatherDisplay:10.37,2013-01-19 19:22:00,
2013-01-19 13:27:00,49.8,37.7,29.84,WSW,248,17.3,17.3,63,0.00,CLR,,0.00,WeatherDisplay:10.37,2013-01-19 19:27:00,
2013-01-19 13:32:00,50.1,38.0,29.84,WSW,256,20.7,20.7,63,0.00,CLR,,0.00,WeatherDisplay:10.37,2013-01-19 19:32:00,
2013-01-19 13:37:00,50.1,38.0,29.85,South,184,17.3,17.3,63,0.00,CLR,,0.00,WeatherDisplay:10.37,2013-01-19 19:37:00,
2013-01-19 13:43:00,50.1,38.0,29.84,WSW,252,16.1,16.1,63,0.00,CLR,,0.00,WeatherDisplay:10.37,2013-01-19 19:43:00,
2013-01-19 13:48:00,50.3,38.2,29.84,South,188,18.4,18.4,63,0.00,CLR,,0.00,WeatherDisplay:10.37,2013-01-19 19:48:00,
2013-01-19 13:53:00,50.4,38.3,29.84,SW,221,18.4,18.4,63,0.00,CLR,,0.00,WeatherDisplay:10.37,2013-01-19 19:53:00,
2013-01-19 13:59:00,50.4,38.7,29.84,WSW,238,17.3,17.3,64,0.00,CLR,,0.00,WeatherDisplay:10.37,2013-01-19 19:59:00,
2013-01-19 14:04:00,50.6,39.3,29.84,SW,222,13.8,13.8,65,0.00,CLR,,0.00,WeatherDisplay:10.37,2013-01-19 20:04:00,
2013-01-19 14:09:00,50.7,39.0,29.84,SSE,154,18.4,18.4,64,0.00,CLR,,0.00,WeatherDisplay:10.37,2013-01-19 20:09:00,
2013-01-19 14:14:00,51.0,39.2,29.85,SW,219,19.0,19.0,64,0.00,CLR,,0.00,WeatherDisplay:10.37,2013-01-19 20:14:00,
2013-01-19 14:20:00,51.1,39.3,29.84,SW,231,13.8,13.8,64,0.00,CLR,,0.00,WeatherDisplay:10.37,2013-01-19 20:20:00,
2013-01-19 14:25:00,51.4,39.2,29.85,SW,232,12.7,12.7,63,0.00,CLR,,0.00,WeatherDisplay:10.37,2013-01-19 20:25:00,
2013-01-19 14:30:00,51.3,38.7,29.84,SW,225,17.3,17.3,62,0.00,CLR,,0.00,WeatherDisplay:10.37,2013-01-19 20:30:00,
2013-01-19 14:35:00,51.4,38.4,29.84,SW,232,19.6,19.6,61,0.00,CLR,,0.00,WeatherDisplay:10.37,2013-01-19 20:35:00,
2013-01-19 14:41:00,51.3,38.3,29.84,WSW,255,16.1,16.1,61,0.00,CLR,,0.00,WeatherDisplay:10.37,2013-01-19 20:41:00,
2013-01-19 14:47:00,51.1,38.9,29.84,SW,232,10.4,10.4,63,0.00,CLR,,0.00,WeatherDisplay:10.37,2013-01-19 20:47:00,
2013-01-19 14:53:00,50.9,39.5,29.84,WSW,238,11.5,11.5,65,0.00,CLR,,0.00,WeatherDisplay:10.37,2013-01-19 20:53:00,
2013-01-19 14:58:00,50.7,38.1,29.85,SW,221,23.0,23.0,62,0.00,CLR,,0.00,WeatherDisplay:10.37,2013-01-19 20:58:00,
2013-01-19 15:03:00,50.6,37.6,29.84,SW,233,12.7,12.7,61,0.00,CLR,,0.00,WeatherDisplay:10.37,2013-01-19 21:03:00,
2013-01-19 15:08:00,50.1,38.0,29.84,SW,236,17.3,17.3,63,0.00,CLR,,0.00,WeatherDisplay:10.37,2013-01-19 21:08:00,
2013-01-19 15:14:00,49.9,38.2,29.84,SW,233,17.3,17.3,64,0.00,CLR,,0.00,WeatherDisplay:10.37,2013-01-19 21:14:00,
2013-01-19 15:19:00,49.7,38.0,29.85,WSW,237,16.1,16.1,64,0.00,CLR,,0.00,WeatherDisplay:10.37,2013-01-19 21:19:00,
2013-01-19 15:24:00,49.6,38.3,29.85,SSW,193,10.4,10.4,65,0.00,CLR,,0.00,WeatherDisplay:10.37,2013-01-19 21:24:00,
2013-01-19 15:30:00,49.4,38.1,29.85,WSW,258,17.3,17.3,65,0.00,CLR,,0.00,WeatherDisplay:10.37,2013-01-19 21:30:00,
2013-01-19 15:35:00,49.2,37.9,29.85,SW,230,12.7,12.7,65,0.00,CLR,,0.00,WeatherDisplay:10.37,2013-01-19 21:35:00,
2013-01-19 15:41:00,49.0,38.1,29.85,WSW,246,9.2,9.2,66,0.00,CLR,,0.00,WeatherDisplay:10.37,2013-01-19 21:41:00,
2013-01-19 15:46:00,48.7,37.8,29.84,WSW,250,10.4,10.4,66,0.00,CLR,,0.00,WeatherDisplay:10.37,2013-01-19 21:46:00,
2013-01-19 15:51:00,48.5,38.0,29.84,SW,233,12.7,12.7,67,0.00,CLR,,0.00,WeatherDisplay:10.37,2013-01-19 21:51:00,
2013-01-19 15:56:00,48.5,38.0,29.84,SW,223,12.7,12.7,67,0.00,CLR,,0.00,WeatherDisplay:10.37,2013-01-19 21:56:00,
2013-01-19 16:02:00,48.6,37.7,29.84,SW,230,11.5,11.5,66,0.00,CLR,,0.00,WeatherDisplay:10.37,2013-01-19 22:02:00,
2013-01-19 16:08:00,48.7,37.8,29.84,SW,223,11.5,11.5,66,0.00,CLR,,0.00,WeatherDisplay:10.37,2013-01-19 22:08:00,
2013-01-19 16:13:00,48.6,37.7,29.84,SSW,205,11.5,11.5,66,0.00,CLR,,0.00,WeatherDisplay:10.37,2013-01-19 22:13:00,
2013-01-19 16:18:00,48.4,37.9,29.84,SW,221,13.8,13.8,67,0.00,CLR,,0.00,WeatherDisplay:10.37,2013-01-19 22:18:00,
2013-01-19 16:23:00,48.1,38.0,29.84,SW,235,11.5,11.5,68,0.00,CLR,,0.00,WeatherDisplay:10.37,2013-01-19 22:23:00,
2013-01-19 16:28:00,47.9,37.8,29.83,SSW,209,17.3,17.3,68,0.00,CLR,,0.00,WeatherDisplay:10.37,2013-01-19 22:28:00,
2013-01-19 16:33:00,47.6,37.6,29.83,SSW,205,11.5,11.5,68,0.00,CLR,,0.00,WeatherDisplay:10.37,2013-01-19 22:33:00,
2013-01-19 16:38:00,47.4,37.7,29.83,SW,221,13.8,13.8,69,0.00,CLR,,0.00,WeatherDisplay:10.37,2013-01-19 22:38:00,
2013-01-19 16:45:00,47.1,37.4,29.83,SW,225,9.2,9.2,69,0.00,CLR,,0.00,WeatherDisplay:10.37,2013-01-19 22:45:00,
2013-01-19 16:50:00,46.9,37.6,29.83,SSW,198,10.4,10.4,70,0.00,CLR,,0.00,WeatherDisplay:10.37,2013-01-19 22:50:00,
2013-01-19 16:55:00,46.8,37.5,29.83,SSW,196,10.4,10.4,70,0.00,CLR,,0.00,WeatherDisplay:10.37,2013-01-19 22:55:00,
2013-01-19 17:00:00,46.7,37.4,29.83,SW,219,11.5,11.5,70,0.00,CLR,,0.00,WeatherDisplay:10.37,2013-01-19 23:00:00,
2013-01-19 17:06:00,46.6,37.3,29.83,SW,222,11.5,11.5,70,0.00,CLR,,0.00,WeatherDisplay:10.37,2013-01-19 23:06:00,
2013-01-19 17:12:00,46.3,37.0,29.83,SW,217,9.2,9.2,70,0.00,CLR,,0.00,WeatherDisplay:10.37,2013-01-19 23:12:00,
2013-01-19 17:17:00,46.0,37.1,29.83,SW,219,6.9,6.9,71,0.00,CLR,,0.00,WeatherDisplay:10.37,2013-01-19 23:17:00,
2013-01-19 17:23:00,45.8,36.9,29.83,SW,219,10.4,10.4,71,0.00,CLR,,0.00,WeatherDisplay:10.37,2013-01-19 23:23:00,
2013-01-19 17:28:00,45.6,36.7,29.83,South,183,9.2,9.2,71,0.00,CLR,,0.00,WeatherDisplay:10.37,2013-01-19 23:28:00,
2013-01-19 17:33:00,45.4,36.9,29.83,SSW,213,10.4,10.4,72,0.00,CLR,,0.00,WeatherDisplay:10.37,2013-01-19 23:33:00,
2013-01-19 17:38:00,45.2,36.7,29.84,SSW,202,6.9,6.9,72,0.00,CLR,,0.00,WeatherDisplay:10.37,2013-01-19 23:38:00,
2013-01-19 17:44:00,45.0,36.5,29.83,SW,224,6.9,6.9,72,0.00,CLR,,0.00,WeatherDisplay:10.37,2013-01-19 23:44:00,
2013-01-19 17:49:00,44.8,36.7,29.84,SW,221,11.5,11.5,73,0.00,CLR,,0.00,WeatherDisplay:10.37,2013-01-19 23:49:00,
2013-01-19 17:56:00,44.6,36.5,29.84,SW,230,6.9,6.9,73,0.00,CLR,,0.00,WeatherDisplay:10.37,2013-01-19 23:56:00,
2013-01-19 18:01:00,44.4,36.3,29.85,SW,227,9.2,9.2,73,0.00,CLR,,0.00,WeatherDisplay:10.37,2013-01-20 00:01:00,
2013-01-19 18:06:00,44.2,36.1,29.85,SW,233,10.4,10.4,73,0.00,CLR,,0.00,WeatherDisplay:10.37,2013-01-20 00:06:00,
2013-01-19 18:11:00,43.9,35.8,29.85,WNW,296,2.3,0.0,73,0.00,CLR,,0.00,WeatherDisplay:10.37,2013-01-20 00:11:00,
2013-01-19 18:17:00,43.2,35.5,29.86,SW,223,6.9,6.9,74,0.00,CLR,,0.00,WeatherDisplay:10.37,2013-01-20 00:17:00,
2013-01-19 18:22:00,42.7,35.0,29.86,SW,219,5.8,5.8,74,0.00,CLR,,0.00,WeatherDisplay:10.37,2013-01-20 00:22:00,
2013-01-19 18:27:00,42.3,34.9,29.86,WSW,256,5.8,5.8,75,0.00,CLR,,0.00,WeatherDisplay:10.37,2013-01-20 00:27:00,
2013-01-19 18:33:00,41.9,34.9,29.86,SSW,213,2.0,2.0,76,0.00,CLR,,0.00,WeatherDisplay:10.37,2013-01-20 00:33:00,
2013-01-19 18:38:00,41.6,34.6,29.87,WNW,296,0.0,0.0,76,0.00,CLR,,0.00,WeatherDisplay:10.37,2013-01-20 00:38:00,
2013-01-19 18:43:00,41.1,34.1,29.87,WNW,292,0.0,0.0,76,0.00,CLR,,0.00,WeatherDisplay:10.37,2013-01-20 00:43:00,
2013-01-19 18:48:00,40.8,34.1,29.87,WSW,247,3.5,3.5,77,0.00,CLR,,0.00,WeatherDisplay:10.37,2013-01-20 00:48:00,
2013-01-19 18:53:00,40.4,33.8,29.88,West,277,1.2,0.0,77,0.00,CLR,,0.00,WeatherDisplay:10.37,2013-01-20 00:53:00,
2013-01-19 18:58:00,39.9,33.6,29.89,West,281,3.5,0.0,78,0.00,CLR,,0.00,WeatherDisplay:10.37,2013-01-20 00:58:00,
2013-01-19 19:04:00,39.6,33.6,29.88,SW,223,2.3,2.3,79,0.00,CLR,,0.00,WeatherDisplay:10.37,2013-01-20 01:04:00,
2013-01-19 19:09:00,39.4,33.4,29.88,SSW,213,5.0,5.0,79,0.00,CLR,,0.00,WeatherDisplay:10.37,2013-01-20 01:09:00,
2013-01-19 19:15:00,39.5,33.8,29.89,West,273,2.3,0.0,80,0.00,CLR,,0.00,WeatherDisplay:10.37,2013-01-20 01:15:00,
2013-01-19 19:20:00,39.4,33.7,29.89,SW,217,8.1,8.1,80,0.00,CLR,,0.00,WeatherDisplay:10.37,2013-01-20 01:20:00,
2013-01-19 19:25:00,39.8,34.4,29.89,SW,234,6.9,6.9,81,0.00,CLR,,0.00,WeatherDisplay:10.37,2013-01-20 01:25:00,
2013-01-19 19:32:00,40.1,34.4,29.89,West,263,1.2,0.0,80,0.00,CLR,,0.00,WeatherDisplay:10.37,2013-01-20 01:32:00,
2013-01-19 19:37:00,39.9,34.2,29.89,WSW,246,10.4,10.4,80,0.00,CLR,,0.00,WeatherDisplay:10.37,2013-01-20 01:37:00,
2013-01-19 19:43:00,40.1,34.7,29.89,WSW,249,9.2,9.2,81,0.00,CLR,,0.00,WeatherDisplay:10.37,2013-01-20 01:43:00,
2013-01-19 19:48:00,40.0,34.6,29.89,SW,234,4.6,4.6,81,0.00,CLR,,0.00,WeatherDisplay:10.37,2013-01-20 01:48:00,
2013-01-19 19:54:00,40.3,34.9,29.89,WSW,253,5.8,5.8,81,0.00,CLR,,0.00,WeatherDisplay:10.37,2013-01-20 01:54:00,
2013-01-19 19:59:00,40.4,35.0,29.89,West,265,9.2,9.2,81,0.00,CLR,,0.00,WeatherDisplay:10.37,2013-01-20 01:59:00,
2013-01-19 20:04:00,40.2,34.8,29.89,WSW,240,6.9,6.9,81,0.00,CLR,,0.00,WeatherDisplay:10.37,2013-01-20 02:04:00,
2013-01-19 20:10:00,40.1,34.7,29.89,WSW,237,5.8,5.8,81,0.00,CLR,,0.00,WeatherDisplay:10.37,2013-01-20 02:10:00,
2013-01-19 20:15:00,39.9,34.5,29.89,WSW,244,6.9,6.9,81,0.00,CLR,,0.00,WeatherDisplay:10.37,2013-01-20 02:15:00,
2013-01-19 20:20:00,39.7,34.3,29.89,WSW,250,5.8,5.8,81,0.00,CLR,,0.00,WeatherDisplay:10.37,2013-01-20 02:20:00,
2013-01-19 20:26:00,39.6,34.2,29.89,WSW,243,9.2,9.2,81,0.00,CLR,,0.00,WeatherDisplay:10.37,2013-01-20 02:26:00,
2013-01-19 20:31:00,39.4,34.1,29.89,WSW,240,6.9,0.0,81,0.00,CLR,,0.00,WeatherDisplay:10.37,2013-01-20 02:31:00,
2013-01-19 20:36:00,39.2,33.9,29.89,WSW,244,4.6,4.6,81,0.00,CLR,,0.00,WeatherDisplay:10.37,2013-01-20 02:36:00,
2013-01-19 20:41:00,38.9,33.9,29.89,WSW,243,3.5,3.5,82,0.00,CLR,,0.00,WeatherDisplay:10.37,2013-01-20 02:41:00,
2013-01-19 20:47:00,38.7,33.7,29.89,WSW,238,4.6,4.6,82,0.00,CLR,,0.00,WeatherDisplay:10.37,2013-01-20 02:47:00,
2013-01-19 20:53:00,38.4,33.4,29.90,West,263,3.5,3.5,82,0.00,CLR,,0.00,WeatherDisplay:10.37,2013-01-20 02:53:00,
2013-01-19 20:58:00,38.1,33.1,29.90,WSW,241,4.6,4.6,82,0.00,CLR,,0.00,WeatherDisplay:10.37,2013-01-20 02:58:00,
2013-01-19 21:03:00,38.0,33.3,29.90,SW,233,5.8,5.8,83,0.00,CLR,,0.00,WeatherDisplay:10.37,2013-01-20 03:03:00,
2013-01-19 21:08:00,37.9,33.2,29.90,SW,227,5.8,5.8,83,0.00,CLR,,0.00,WeatherDisplay:10.37,2013-01-20 03:08:00,
2013-01-19 21:14:00,37.8,33.1,29.90,West,276,4.0,4.0,83,0.00,CLR,,0.00,WeatherDisplay:10.37,2013-01-20 03:14:00,
2013-01-19 21:19:00,37.7,33.3,29.90,WSW,241,5.8,5.8,84,0.00,CLR,,0.00,WeatherDisplay:10.37,2013-01-20 03:19:00,
2013-01-19 21:24:00,37.6,32.9,29.91,WSW,250,5.0,5.0,83,0.00,CLR,,0.00,WeatherDisplay:10.37,2013-01-20 03:24:00,
2013-01-19 21:30:00,37.5,33.1,29.91,WSW,254,6.9,6.9,84,0.00,CLR,,0.00,WeatherDisplay:10.37,2013-01-20 03:30:00,
2013-01-19 21:35:00,37.5,33.1,29.91,West,262,5.8,5.8,84,0.00,CLR,,0.00,WeatherDisplay:10.37,2013-01-20 03:35:00,
2013-01-19 21:40:00,37.5,33.1,29.92,West,267,5.8,5.8,84,0.00,CLR,,0.00,WeatherDisplay:10.37,2013-01-20 03:40:00,
2013-01-19 21:45:00,37.7,33.3,29.92,West,264,4.6,4.6,84,0.00,CLR,,0.00,WeatherDisplay:10.37,2013-01-20 03:45:00,
2013-01-19 21:50:00,37.8,33.4,29.91,West,281,6.9,6.9,84,0.00,CLR,,0.00,WeatherDisplay:10.37,2013-01-20 03:50:00,
2013-01-19 21:57:00,38.0,33.6,29.92,West,275,6.0,6.0,84,0.00,CLR,,0.00,WeatherDisplay:10.37,2013-01-20 03:57:00,
2013-01-19 22:02:00,38.2,33.5,29.92,WSW,250,6.9,6.9,83,0.00,CLR,,0.00,WeatherDisplay:10.37,2013-01-20 04:02:00,
2013-01-19 22:08:00,38.3,33.6,29.92,WSW,250,6.9,6.9,83,0.00,CLR,,0.00,WeatherDisplay:10.37,2013-01-20 04:08:00,
2013-01-19 22:13:00,38.2,33.5,29.92,West,279,8.1,8.1,83,0.00,CLR,,0.00,WeatherDisplay:10.37,2013-01-20 04:13:00,
2013-01-19 22:19:00,38.1,33.4,29.92,West,276,4.0,4.0,83,0.00,CLR,,0.00,WeatherDisplay:10.37,2013-01-20 04:19:00,
2013-01-19 22:24:00,38.0,33.3,29.92,WNW,286,4.6,4.6,83,0.00,CLR,,0.00,WeatherDisplay:10.37,2013-01-20 04:24:00,
2013-01-19 22:29:00,37.8,32.8,29.92,West,277,3.5,3.5,82,0.00,CLR,,0.00,WeatherDisplay:10.37,2013-01-20 04:29:00,
2013-01-19 22:34:00,37.7,32.7,29.92,West,263,3.5,3.5,82,0.00,CLR,,0.00,WeatherDisplay:10.37,2013-01-20 04:34:00,
2013-01-19 22:40:00,37.5,32.8,29.92,West,276,3.0,3.0,83,0.00,CLR,,0.00,WeatherDisplay:10.37,2013-01-20 04:40:00,
2013-01-19 22:45:00,37.4,32.7,29.93,West,277,9.2,9.2,83,0.00,CLR,,0.00,WeatherDisplay:10.37,2013-01-20 04:45:00,
2013-01-19 22:50:00,37.6,32.9,29.93,NW,307,5.8,5.8,83,0.00,CLR,,0.00,WeatherDisplay:10.37,2013-01-20 04:50:00,
2013-01-19 22:56:00,37.8,32.8,29.93,WSW,257,5.8,5.8,82,0.00,CLR,,0.00,WeatherDisplay:10.37,2013-01-20 04:56:00,
2013-01-19 23:01:00,37.8,32.8,29.93,West,269,6.9,6.9,82,0.00,CLR,,0.00,WeatherDisplay:10.37,2013-01-20 05:01:00,
2013-01-19 23:03:00,37.9,32.9,29.93,WSW,255,10.4,10.4,82,0.00,CLR,,0.00,WeatherDisplay:10.37,2013-01-20 05:03:00,
2013-01-19 23:04:00,38.0,33.0,29.93,SW,221,10.4,10.4,82,0.00,CLR,,0.00,WeatherDisplay:10.37,2013-01-20 05:04:00,
2013-01-19 23:09:00,38.5,33.5,29.93,WSW,254,5.8,5.8,82,0.00,CLR,,0.00,WeatherDisplay:10.37,2013-01-20 05:09:00,
2013-01-19 23:14:00,39.3,34.0,29.93,WNW,294,13.8,13.8,81,0.00,CLR,,0.00,WeatherDisplay:10.37,2013-01-20 05:14:00,
2013-01-19 23:19:00,40.3,34.3,29.93,NW,307,22.0,22.0,79,0.00,CLR,,0.00,WeatherDisplay:10.37,2013-01-20 05:19:00,
2013-01-19 23:24:00,41.1,34.1,29.93,WNW,298,18.4,18.4,76,0.00,CLR,,0.00,WeatherDisplay:10.37,2013-01-20 05:24:00,
2013-01-19 23:30:00,41.3,34.0,29.93,NW,319,27.0,27.0,75,0.00,CLR,,0.00,WeatherDisplay:10.37,2013-01-20 05:30:00,
2013-01-19 23:35:00,41.5,33.5,29.94,WNW,302,25.3,25.3,73,0.00,CLR,,0.00,WeatherDisplay:10.37,2013-01-20 05:35:00,
2013-01-19 23:40:00,41.4,33.4,29.94,West,271,19.6,19.6,73,0.00,CLR,,0.00,WeatherDisplay:10.37,2013-01-20 05:40:00,
2013-01-19 23:45:00,41.1,33.1,29.95,West,267,20.7,20.7,73,0.00,CLR,,0.00,WeatherDisplay:10.37,2013-01-20 05:45:00,
2013-01-19 23:50:00,40.8,33.2,29.95,West,274,17.3,17.3,74,0.00,CLR,,0.00,WeatherDisplay:10.37,2013-01-20 05:50:00,
2013-01-19 23:55:00,40.5,32.9,29.95,WNW,287,16.1,16.1,74,0.00,CLR,,0.00,WeatherDisplay:10.37,2013-01-20 05:55:00,